createdAt,value
2022-08-07T00:01:12.578Z,0.82
2022-08-07T00:03:52.341Z,0.45
2022-08-07T00:06:29.556Z,0.70
2022-08-07T00:09:16.977Z,0.68
2022-08-07T00:11:55.510Z,1.02
2022-08-07T00:14:30.129Z,0.85
2022-08-07T00:17:02.476Z,0.60
2022-08-07T00:19:56.048Z,1.05
2022-08-07T00:22:34.535Z,0.90
2022-08-07T00:25:16.495Z,0.82
2022-08-07T00:27:53.404Z,0.70
2022-08-07T00:30:27.207Z,1.00
2022-08-07T00:32:57.135Z,0.90
2022-08-07T00:35:24.325Z,0.80
2022-08-07T00:37:51.810Z,0.65
2022-08-07T00:40:36.174Z,0.50
2022-08-07T00:43:09.853Z,0.90
2022-08-07T00:45:40.472Z,0.98
2022-08-07T00:48:11.118Z,1.08
2022-08-07T00:50:46.608Z,0.77
2022-08-07T00:53:20.294Z,0.50
2022-08-07T00:56:02.206Z,0.95
2022-08-07T00:58:31.004Z,1.17
2022-08-07T01:00:59.102Z,0.90
2022-08-07T01:03:55.738Z,0.80
2022-08-07T01:06:13.933Z,0.85
2022-08-07T01:08:53.053Z,0.60
2022-08-07T01:12:23.616Z,0.70
2022-08-07T01:14:08.953Z,0.65
2022-08-07T01:16:37.035Z,0.65
2022-08-07T01:19:14.758Z,1.00
2022-08-07T01:21:47.280Z,1.23
2022-08-07T01:24:21.247Z,0.90
2022-08-07T01:26:52.180Z,1.02
2022-08-07T01:29:22.098Z,0.82
2022-08-07T01:31:49.943Z,1.00
2022-08-07T01:34:24.077Z,0.98
2022-08-07T01:36:58.751Z,0.75
2022-08-07T01:39:40.847Z,0.80
2022-08-07T01:42:38.949Z,0.57
2022-08-07T01:45:04.263Z,1.05
2022-08-07T01:48:18.500Z,0.68
2022-08-07T01:50:28.644Z,0.90
2022-08-07T01:52:58.528Z,0.63
2022-08-07T01:55:34.499Z,0.80
2022-08-07T01:58:27.419Z,0.70
2022-08-07T02:01:10.373Z,0.80
2022-08-07T02:03:51.436Z,0.90
2022-08-07T02:06:31.442Z,0.88
2022-08-07T02:09:04.307Z,0.88
2022-08-07T02:12:03.459Z,0.60
2022-08-07T02:14:36.001Z,0.55
2022-08-07T02:17:08.462Z,0.90
2022-08-07T02:20:05.156Z,0.60
2022-08-07T02:22:26.197Z,1.35
2022-08-07T02:24:57.621Z,0.80
2022-08-07T02:27:27.498Z,1.15
2022-08-07T02:30:04.001Z,1.23
2022-08-07T02:32:42.652Z,1.45
2022-08-07T02:36:28.600Z,0.70
2022-08-07T02:38:16.906Z,1.10
2022-08-07T02:40:55.282Z,1.45
2022-08-07T02:43:23.336Z,1.00
2022-08-07T02:46:00.722Z,1.60
2022-08-07T02:48:30.809Z,1.42
2022-08-07T02:51:03.315Z,1.40
2022-08-07T02:53:38.824Z,1.30
2022-08-07T02:58:47.225Z,1.77
2022-08-07T03:01:19.156Z,1.38
2022-08-07T03:04:07.630Z,1.98
2022-08-07T03:06:40.196Z,2.47
2022-08-07T03:09:11.171Z,1.60
2022-08-07T03:11:51.655Z,2.15
2022-08-07T03:14:22.546Z,1.50
2022-08-07T03:16:49.798Z,1.20
2022-08-07T03:19:20.077Z,1.27
2022-08-07T03:21:50.767Z,1.80
2022-08-07T03:24:26.838Z,2.28
2022-08-07T03:27:00.409Z,1.90
2022-08-07T03:29:37.772Z,2.03
2022-08-07T03:32:08.453Z,1.70
2022-08-07T03:34:47.487Z,1.60
2022-08-07T03:37:29.569Z,2.00
2022-08-07T03:40:15.610Z,1.48
2022-08-07T03:42:44.630Z,1.88
2022-08-07T03:45:12.449Z,2.03
2022-08-07T03:47:59.225Z,1.83
2022-08-07T03:50:28.525Z,1.88
2022-08-07T03:52:59.313Z,1.52
2022-08-07T03:55:53.361Z,2.10
2022-08-07T03:59:04.641Z,1.90
2022-08-07T04:01:07.503Z,1.60
2022-08-07T04:03:49.511Z,1.88
2022-08-07T04:06:36.303Z,2.33
2022-08-07T04:09:15.217Z,2.03
2022-08-07T04:12:28.231Z,1.75
2022-08-07T04:14:38.704Z,1.42
2022-08-07T04:17:20.376Z,1.75
2022-08-07T04:19:52.601Z,2.10
2022-08-07T04:22:27.423Z,2.55
2022-08-07T04:24:58.150Z,2.35
2022-08-07T04:27:26.555Z,2.25
2022-08-07T04:30:02.203Z,2.10
2022-08-07T04:32:34.350Z,2.50
2022-08-07T04:35:07.302Z,2.25
2022-08-07T04:38:00.831Z,2.50
2022-08-07T04:40:30.156Z,2.35
2022-08-07T04:43:01.311Z,2.58
2022-08-07T04:46:04.666Z,2.40
2022-08-07T04:48:45.799Z,2.35
2022-08-07T04:51:27.777Z,1.77
2022-08-07T04:54:22.661Z,1.88
2022-08-07T04:58:10.524Z,1.55
2022-08-07T05:00:17.443Z,1.70
2022-08-07T05:04:00.475Z,1.40
2022-08-07T05:06:51.631Z,1.38
2022-08-07T05:09:46.332Z,1.58
2022-08-07T05:12:27.254Z,1.77
2022-08-07T05:15:23.270Z,1.85
2022-08-07T05:17:57.344Z,2.03
2022-08-07T05:20:51.242Z,1.88
2022-08-07T05:23:48.106Z,2.00
2022-08-07T05:26:24.250Z,1.63
2022-08-07T05:28:58.027Z,2.03
2022-08-07T05:31:34.680Z,2.00
2022-08-07T05:34:05.554Z,2.17
2022-08-07T05:40:12.763Z,1.67
2022-08-07T05:42:01.823Z,1.83
2022-08-07T05:44:33.908Z,1.40
2022-08-07T05:47:01.953Z,2.35
2022-08-07T05:49:50.455Z,1.40
2022-08-07T05:52:20.271Z,2.13
2022-08-07T05:54:55.975Z,1.80
2022-08-07T05:57:30.358Z,2.00
2022-08-07T06:00:02.289Z,1.80
2022-08-07T06:02:35.545Z,1.52
2022-08-07T06:05:15.917Z,1.67
2022-08-07T06:08:29.867Z,2.20
2022-08-07T06:10:31.552Z,1.60
2022-08-07T06:12:59.977Z,1.48
2022-08-07T06:15:39.292Z,0.95
2022-08-07T06:18:12.232Z,0.80
2022-08-07T06:20:50.291Z,1.25
2022-08-07T06:24:37.178Z,1.10
2022-08-07T06:26:17.999Z,1.10
2022-08-07T06:28:53.510Z,1.08
2022-08-07T06:31:24.317Z,1.30
2022-08-07T06:34:05.744Z,1.70
2022-08-07T06:36:35.128Z,1.30
2022-08-07T06:40:16.977Z,1.00
2022-08-07T06:42:03.531Z,1.00
2022-08-07T06:44:36.592Z,1.00
2022-08-07T06:47:12.329Z,1.00
2022-08-07T06:49:51.949Z,1.27
2022-08-07T06:52:31.597Z,0.70
2022-08-07T06:55:31.346Z,1.15
2022-08-07T06:58:10.647Z,0.93
2022-08-07T07:03:13.638Z,0.68
2022-08-07T07:06:04.826Z,1.00
2022-08-07T07:08:33.026Z,1.15
2022-08-07T07:11:01.610Z,1.52
2022-08-07T07:13:58.695Z,1.70
2022-08-07T07:16:34.095Z,1.20
2022-08-07T07:19:56.513Z,1.77
2022-08-07T07:22:04.774Z,1.23
2022-08-07T07:24:43.056Z,1.52
2022-08-07T07:27:35.754Z,1.00
2022-08-07T07:30:32.436Z,1.30
2022-08-07T07:33:02.601Z,1.40
2022-08-07T07:35:33.646Z,0.95
2022-08-07T07:38:13.651Z,1.42
2022-08-07T07:40:42.619Z,0.90
2022-08-07T07:43:18.585Z,1.00
2022-08-07T07:46:38.064Z,1.23
2022-08-07T07:48:43.092Z,1.00
2022-08-07T07:51:15.471Z,1.13
2022-08-07T07:53:52.000Z,1.00
2022-08-07T07:56:30.104Z,0.70
2022-08-07T07:59:00.458Z,1.00
2022-08-07T08:02:04.868Z,1.17
2022-08-07T08:04:19.890Z,0.82
2022-08-07T08:06:54.097Z,1.02
2022-08-07T08:09:24.417Z,1.17
2022-08-07T08:12:01.854Z,1.02
2022-08-07T08:14:36.061Z,1.07
2022-08-07T08:17:55.262Z,1.35
2022-08-07T08:20:18.887Z,1.40
2022-08-07T08:23:08.356Z,1.02
2022-08-07T08:25:58.184Z,1.63
2022-08-07T08:28:38.091Z,0.70
2022-08-07T08:31:13.856Z,0.90
2022-08-07T08:33:49.667Z,1.02
2022-08-07T08:36:18.637Z,1.00
2022-08-07T08:38:56.324Z,0.90
2022-08-07T08:42:03.266Z,0.70
2022-08-07T08:44:48.842Z,0.90
2022-08-07T08:47:47.348Z,0.73
2022-08-07T08:50:35.312Z,0.90
2022-08-07T08:53:31.198Z,1.27
2022-08-07T08:56:03.129Z,1.17
2022-08-07T08:58:57.254Z,0.98
2022-08-07T09:01:58.536Z,1.10
2022-08-07T09:04:43.469Z,1.17
2022-08-07T09:07:46.343Z,1.20
